Terminal Aerodrome Forecast
Issued by NWS

Current Version | Previous Version | Text Only | Print | Product List | Glossary On
Versions: 1 2 3 4 5 6 7 8 9 10 11 12 13 14 15 16 17 18
000
FTPA31 PHFO 151120
TAFHTO
TAF
PHTO 151120Z 1512/1612 35011KT P6SM VCSH SCT025 BKN045
     FM152000 01014KT P6SM SCT030 BKN045
     FM160300 34009G16KT P6SM VCSH SCT025 BKN045
     FM160700 VRB05KT 5SM -SHRA BKN025 OVC045=

USA.gov is the U.S. government's official web portal to all federal, state and local government web resources and services.